Time;durP1;ratioP1;P1;durP2;ratioP2;P2;SDS_P1;SDS_P2;PMS_P1;PMS_P2;Temp;Humidity;BMP_temperature;BMP_pressure;BME280_temperature;BME280_humidity;BME280_pressure;Samples;Min_cycle;Max_cycle;Signal;HPM_P1;HPM_P2
2021/11/09 00:00:13;;;;;;;876.70;820.78;;;;;;;18.60;45.54;101338.81;5054045;28;20085;-40
2021/11/09 00:02:40;;;;;;;894.13;837.90;;;;;;;18.64;45.27;101341.22;5053873;28;20108;-41
2021/11/09 00:05:09;;;;;;;867.03;813.17;;;;;;;18.61;45.40;101340.50;5054586;28;20028;-40
2021/11/09 00:07:51;;;;;;;857.20;803.63;;;;;;;18.62;45.19;101330.72;5054942;28;20048;-40
2021/11/09 00:10:18;;;;;;;865.97;811.60;;;;;;;18.65;45.38;101332.25;5054768;28;20017;-40
2021/11/09 00:12:53;;;;;;;859.63;805.75;;;;;;;18.63;45.57;101337.72;5054646;28;20261;-40
2021/11/09 00:15:20;;;;;;;845.80;793.42;;;;;;;18.64;45.48;101334.09;5054799;28;20355;-40
2021/11/09 00:17:48;;;;;;;855.83;802.20;;;;;;;18.65;45.56;101340.25;5054492;28;20032;-40
2021/11/09 00:20:16;;;;;;;861.97;808.38;;;;;;;18.53;45.50;101319.03;5054597;28;20442;-40
2021/11/09 00:22:43;;;;;;;860.22;806.00;;;;;;;18.63;45.56;101337.72;5053752;28;20033;-40
2021/11/09 00:25:09;;;;;;;896.72;839.45;;;;;;;18.59;45.31;101331.81;5054497;28;20426;-40
2021/11/09 00:27:36;;;;;;;911.42;853.40;;;;;;;18.62;45.62;101341.34;5054561;28;20025;-40
2021/11/09 00:30:03;;;;;;;859.67;805.65;;;;;;;18.61;45.53;101342.31;5054765;28;20043;-40
2021/11/09 00:32:30;;;;;;;870.40;815.55;;;;;;;18.60;45.46;101337.97;5054427;28;20033;-40
2021/11/09 00:34:56;;;;;;;872.92;818.03;;;;;;;18.59;45.58;101345.09;5054257;28;20021;-40
2021/11/09 00:37:22;;;;;;;854.08;799.70;;;;;;;18.61;45.69;101343.16;5054498;28;20484;-40
2021/11/09 00:39:48;;;;;;;895.38;837.70;;;;;;;18.62;45.56;101342.19;5054354;28;20029;-40
2021/11/09 00:42:15;;;;;;;881.25;825.45;;;;;;;18.62;45.58;101346.69;5054454;28;20446;-40
2021/11/09 00:44:42;;;;;;;875.13;819.78;;;;;;;18.61;45.97;101344.97;5054542;28;20028;-40
2021/11/09 00:47:08;;;;;;;898.67;841.70;;;;;;;18.64;45.98;101349.22;5053645;28;20036;-40
2021/11/09 00:49:34;;;;;;;860.08;806.40;;;;;;;18.64;45.88;101341.22;5058625;28;20462;-41
2021/11/09 00:52:01;;;;;;;903.60;846.13;;;;;;;18.61;45.92;101348.47;5058535;28;20044;-40
2021/11/09 00:54:28;;;;;;;859.95;805.92;;;;;;;18.60;46.01;101352.13;5058449;28;20451;-40
2021/11/09 00:56:54;;;;;;;887.42;831.35;;;;;;;18.61;45.84;101353.78;5058145;28;20366;-40
2021/11/09 00:59:21;;;;;;;869.47;814.22;;;;;;;18.60;45.94;101352.13;5058349;28;20364;-40
2021/11/09 01:01:47;;;;;;;887.97;830.95;;;;;;;18.60;46.00;101361.91;5058115;28;20035;-40
2021/11/09 01:04:13;;;;;;;880.90;824.90;;;;;;;18.49;45.85;101344.19;5058426;28;20096;-40
2021/11/09 01:06:39;;;;;;;880.40;824.65;;;;;;;18.49;45.94;101346.84;5057989;28;20027;-40
2021/11/09 01:09:06;;;;;;;886.55;829.88;;;;;;;18.62;45.73;101370.63;5058316;28;20031;-40
2021/11/09 01:11:34;;;;;;;901.75;844.25;;;;;;;18.61;45.79;101372.41;5058213;28;20070;-40
2021/11/09 01:14:01;;;;;;;921.38;862.85;;;;;;;18.62;45.64;101371.44;5058250;28;20024;-40
2021/11/09 01:16:27;;;;;;;885.80;829.22;;;;;;;18.64;45.54;101373.16;5057972;28;20020;-40
2021/11/09 01:18:55;;;;;;;894.50;838.03;;;;;;;18.56;45.63;101371.94;5073888;28;20086;-40
2021/11/09 01:21:23;;;;;;;878.00;822.58;;;;;;;18.58;45.40;101379.81;5058042;28;20032;-40
2021/11/09 01:23:51;;;;;;;875.50;819.05;;;;;;;18.58;45.27;101379.81;5057112;28;20039;-40
2021/11/09 01:26:17;;;;;;;890.72;833.88;;;;;;;18.57;45.44;101381.63;5057746;28;20025;-40
2021/11/09 01:28:45;;;;;;;875.75;820.08;;;;;;;18.57;45.26;101380.78;5057766;28;20478;-40
2021/11/09 01:31:11;;;;;;;873.65;818.08;;;;;;;18.57;44.98;101383.47;5057791;28;20024;-40
2021/11/09 01:33:38;;;;;;;884.58;829.05;;;;;;;18.47;45.12;101367.41;5057641;28;20021;-40
2021/11/09 01:36:04;;;;;;;882.67;826.58;;;;;;;18.54;45.09;101387.19;5057667;28;20096;-40
2021/11/09 01:38:31;;;;;;;891.85;836.28;;;;;;;18.56;44.85;101390.56;5057703;28;20025;-40
2021/11/09 01:40:57;;;;;;;877.33;822.40;;;;;;;18.56;44.61;101395.88;5057417;28;20021;-40
2021/11/09 01:43:24;;;;;;;921.45;863.50;;;;;;;18.55;44.38;101383.59;5057589;28;20405;-40
2021/11/09 01:45:50;;;;;;;866.33;812.38;;;;;;;18.56;44.45;101384.41;5057546;28;20501;-40
2021/11/09 01:48:17;;;;;;;878.13;822.83;;;;;;;18.56;44.43;101395.88;5057320;28;20391;-40
2021/11/09 01:50:46;;;;;;;896.03;838.17;;;;;;;18.51;44.35;101382.16;5057367;28;20021;-40
2021/11/09 01:53:13;;;;;;;847.75;794.55;;;;;;;18.54;44.19;101397.84;5056697;28;20096;-40
2021/11/09 01:55:39;;;;;;;900.00;842.97;;;;;;;18.51;44.34;101398.13;5057432;28;20532;-40
2021/11/09 01:58:07;;;;;;;870.15;815.95;;;;;;;18.51;44.20;101408.75;5057157;28;20020;-40
2021/11/09 02:00:45;;;;;;;901.10;844.13;;;;;;;18.51;44.17;101402.56;5055976;28;20025;-40
2021/11/09 02:03:12;;;;;;;862.72;808.92;;;;;;;18.52;44.07;101396.28;5057070;28;20036;-40
2021/11/09 02:05:39;;;;;;;855.05;802.05;;;;;;;18.54;43.97;101399.66;5057099;28;20029;-40
2021/11/09 02:08:05;;;;;;;890.20;834.15;;;;;;;18.53;44.11;101392.63;5056999;28;20031;-40
2021/11/09 02:10:34;;;;;;;884.97;829.72;;;;;;;18.52;43.80;101385.66;5056981;28;20020;-40
2021/11/09 02:13:00;;;;;;;855.33;802.10;;;;;;;18.52;43.78;101389.16;5057117;28;20064;-39
2021/11/09 02:15:29;;;;;;;852.53;800.47;;;;;;;18.51;43.68;101390.13;5056225;28;20131;-40
2021/11/09 02:17:55;;;;;;;843.47;789.95;;;;;;;18.52;43.67;101397.13;5056510;28;20458;-40
2021/11/09 02:20:23;;;;;;;869.60;814.33;;;;;;;18.50;43.52;101387.59;5056830;28;20502;-40
2021/11/09 02:22:50;;;;;;;880.97;825.83;;;;;;;18.49;43.48;101389.38;5056856;28;20035;-40
2021/11/09 02:25:18;;;;;;;898.80;842.10;;;;;;;18.46;43.47;101395.00;5056763;28;20036;-40
2021/11/09 02:27:44;;;;;;;851.63;797.80;;;;;;;18.45;43.61;101390.63;5072156;28;20051;-40
2021/11/09 02:30:12;;;;;;;887.78;831.72;;;;;;;18.45;43.44;101382.66;5056701;28;20086;-40
2021/11/09 02:32:38;;;;;;;877.75;821.67;;;;;;;18.47;43.40;101393.16;5056483;28;20025;-41
2021/11/09 02:35:06;;;;;;;864.80;810.67;;;;;;;18.47;43.26;101378.03;5056651;28;20102;-40
2021/11/09 02:37:32;;;;;;;866.90;812.92;;;;;;;18.47;43.34;101374.53;5056427;28;20027;-40
2021/11/09 02:39:59;;;;;;;871.70;816.80;;;;;;;18.49;43.26;101376.09;5047874;28;20351;-40
2021/11/09 02:42:30;;;;;;;877.47;823.10;;;;;;;18.39;43.17;101357.41;5036594;28;20447;-40
2021/11/09 02:45:10;;;;;;;850.17;797.27;;;;;;;18.48;43.06;101376.25;5035664;28;20029;-40
2021/11/09 02:47:53;;;;;;;833.40;781.55;;;;;;;18.44;43.14;101373.00;5039534;28;20435;-40
2021/11/09 02:50:23;;;;;;;839.13;787.80;;;;;;;18.42;43.15;101386.41;5056604;28;20385;-40
2021/11/09 02:52:56;;;;;;;853.67;800.20;;;;;;;18.45;42.98;101384.47;5056185;28;20473;-40
2021/11/09 02:55:32;;;;;;;844.40;792.53;;;;;;;18.43;43.08;101388.09;5055295;28;20462;-40
2021/11/09 02:58:14;;;;;;;888.05;833.08;;;;;;;18.43;42.98;101403.22;5056030;28;20033;-40
2021/11/09 03:00:56;;;;;;;;;;;;;;;18.62;42.48;101398.06;5056529;28;20021;-40
2021/11/09 03:03:31;;;;;;;777.92;730.95;;;;;;;18.49;42.85;101388.56;5055932;28;20239;-40
2021/11/09 03:06:22;;;;;;;797.55;749.83;;;;;;;18.49;42.98;101391.22;5055962;28;20111;-40
2021/11/09 03:08:56;;;;;;;825.42;774.17;;;;;;;18.47;42.90;101379.88;5055690;28;20021;-40
2021/11/09 03:11:22;;;;;;;857.28;804.78;;;;;;;18.47;42.92;101394.00;5055997;28;20444;-40
2021/11/09 03:13:49;;;;;;;855.58;801.72;;;;;;;18.38;43.14;101370.84;5055923;28;20055;-40
2021/11/09 03:16:16;;;;;;;839.78;787.05;;;;;;;18.43;43.05;101392.56;5055721;28;20029;-40
2021/11/09 03:18:52;;;;;;;879.08;824.53;;;;;;;18.40;43.19;101383.03;5055235;28;20037;-40
2021/11/09 03:45:29;;;;;;;839.95;788.40;;;;;;;18.42;43.56;101359.81;5055698;28;20365;-40
2021/11/09 03:48:02;;;;;;;882.58;826.53;;;;;;;18.41;43.91;101358.13;5054958;28;20035;-40
2021/11/09 03:50:28;;;;;;;891.90;836.25;;;;;;;18.35;43.81;101374.59;5055211;28;20473;-40
2021/11/09 03:53:08;;;;;;;883.20;827.15;;;;;;;18.38;43.97;101368.16;5055058;28;20029;-40
2021/11/09 04:01:04;;;;;;;851.88;799.58;;;;;;;18.42;43.70;101372.25;5055104;28;20090;-40
2021/11/09 04:03:46;;;;;;;;;;;;;;;18.64;43.47;101371.31;5055355;28;20373;-40
2021/11/09 04:08:49;;;;;;;806.25;757.35;;;;;;;18.45;43.80;101369.34;5054601;28;20032;-40
2021/11/09 04:11:28;;;;;;;853.83;800.70;;;;;;;18.40;43.93;101364.44;5054871;28;20036;-40
2021/11/09 04:14:44;;;;;;;877.33;822.42;;;;;;;18.39;44.02;101376.03;5054697;28;20020;-40
2021/11/09 04:16:47;;;;;;;873.70;819.63;;;;;;;18.37;44.15;101388.63;5050703;28;20135;-40
2021/11/09 04:19:43;;;;;;;;;;;;;;;18.54;43.91;101407.63;5054846;28;20028;-40
2021/11/09 04:47:31;;;;;;;851.90;798.78;;;;;;;18.32;44.99;101427.19;5054474;28;20100;-40
2021/11/09 04:52:04;;;;;;;899.47;842.67;;;;;;;18.32;45.12;101405.91;5054452;28;20021;-40
2021/11/09 05:02:48;;;;;;;856.25;803.30;;;;;;;18.39;44.91;101394.66;5054110;28;20032;-40
2021/11/09 05:10:44;;;;;;;853.70;800.67;;;;;;;18.32;45.50;101374.00;5053958;28;20059;-40
2021/11/09 05:13:10;;;;;;;872.90;818.20;;;;;;;18.32;45.73;101377.50;5054152;28;20063;-40
2021/11/09 05:15:37;;;;;;;861.25;807.58;;;;;;;18.30;45.77;101392.75;5054169;28;20029;-40
2021/11/09 05:18:03;;;;;;;854.30;801.15;;;;;;;18.31;45.47;101382.94;5053954;28;20078;-40
2021/11/09 05:20:30;;;;;;;872.85;817.28;;;;;;;18.29;45.76;101379.56;5053695;28;20017;-40
2021/11/09 05:22:56;;;;;;;896.17;839.53;;;;;;;18.27;45.70;101381.50;5053975;28;20024;-40
2021/11/09 05:25:23;;;;;;;894.78;838.33;;;;;;;18.28;45.86;101372.56;5054341;28;20484;-40
2021/11/09 05:27:49;;;;;;;876.60;822.30;;;;;;;18.31;45.62;101362.50;5054062;28;20032;-40
2021/11/09 05:30:16;;;;;;;858.85;805.45;;;;;;;18.34;45.58;101356.94;5053824;28;20021;-40
2021/11/09 05:32:43;;;;;;;863.45;809.00;;;;;;;18.39;45.44;101353.91;5053824;28;20029;-40
2021/11/09 05:35:09;;;;;;;854.00;800.90;;;;;;;18.35;45.54;101348.00;5057795;28;20024;-40
2021/11/09 05:37:55;;;;;;;864.95;810.65;;;;;;;18.30;45.78;101342.22;5057801;28;20025;-40
2021/11/09 05:40:28;;;;;;;881.78;827.50;;;;;;;18.26;45.91;101339.94;5057404;28;20025;-40
2021/11/09 05:42:54;;;;;;;850.05;797.47;;;;;;;18.29;46.28;101337.03;5057513;28;20350;-40
2021/11/09 05:45:20;;;;;;;878.45;822.90;;;;;;;18.21;46.09;101337.69;5057660;28;20090;-40
2021/11/09 05:47:46;;;;;;;886.25;830.00;;;;;;;18.27;46.09;101333.66;5057647;28;20028;-40
2021/11/09 05:50:13;;;;;;;868.58;814.50;;;;;;;18.23;45.99;101335.72;5057413;28;20063;-40
2021/11/09 05:52:39;;;;;;;880.40;825.22;;;;;;;18.24;46.00;101324.97;5057396;28;20050;-40
2021/11/09 05:55:05;;;;;;;858.35;804.85;;;;;;;18.16;46.15;101313.28;5056401;28;20036;-40
2021/11/09 05:57:32;;;;;;;870.10;815.90;;;;;;;18.30;45.85;101305.00;5057499;28;20021;-40
2021/11/09 05:59:58;;;;;;;876.20;822.13;;;;;;;18.32;45.71;101305.72;5057242;28;20029;-40
2021/11/09 06:02:24;;;;;;;879.90;824.95;;;;;;;18.33;45.71;101314.53;5056988;28;20057;-40
2021/11/09 06:04:54;;;;;;;859.72;805.42;;;;;;;18.32;45.94;101331.47;5057171;28;20359;-40
2021/11/09 06:07:20;;;;;;;888.95;833.42;;;;;;;18.25;45.65;101309.84;5057140;28;20045;-40
2021/11/09 06:09:46;;;;;;;880.67;824.55;;;;;;;18.21;45.85;101309.28;5057177;28;20078;-40
2021/11/09 06:12:13;;;;;;;877.97;822.85;;;;;;;18.20;45.84;101306.72;5056133;28;20025;-40
2021/11/09 06:14:39;;;;;;;887.88;831.40;;;;;;;18.19;46.07;101307.69;5057276;28;20409;-40
2021/11/09 06:17:05;;;;;;;852.72;800.35;;;;;;;18.17;46.00;101293.69;5055962;28;20036;-39
2021/11/09 06:19:31;;;;;;;869.17;815.55;;;;;;;18.17;45.75;101281.22;5057333;28;20031;-40
2021/11/09 06:21:57;;;;;;;864.03;809.22;;;;;;;18.19;45.89;101271.34;5056764;28;20359;-40
2021/11/09 06:24:23;;;;;;;894.08;837.53;;;;;;;18.17;45.87;101261.78;5056905;28;20450;-40
2021/11/09 06:26:50;;;;;;;856.67;803.63;;;;;;;18.20;45.69;101243.78;5056691;28;20025;-40
2021/11/09 06:29:16;;;;;;;842.72;791.03;;;;;;;18.22;45.68;101238.31;5056072;28;20356;-40
2021/11/09 06:31:42;;;;;;;849.20;795.97;;;;;;;18.29;45.53;101233.34;5056581;28;20020;-39
2021/11/09 06:34:09;;;;;;;881.80;826.78;;;;;;;18.23;45.49;101232.06;5055733;28;20048;-40
2021/11/09 06:36:35;;;;;;;881.33;825.70;;;;;;;18.16;45.98;101222.91;5056495;28;20443;-40
2021/11/09 06:39:01;;;;;;;886.80;831.38;;;;;;;18.16;45.91;101225.56;5056500;28;20043;-39
2021/11/09 06:41:28;;;;;;;877.00;821.67;;;;;;;18.17;45.79;101227.22;5055231;28;20021;-40
2021/11/09 06:43:55;;;;;;;877.72;822.38;;;;;;;18.12;45.87;101232.09;5056508;28;20036;-40
2021/11/09 06:46:21;;;;;;;885.90;830.50;;;;;;;18.14;45.99;101233.66;5055812;28;20416;-40
2021/11/09 06:48:48;;;;;;;904.15;847.05;;;;;;;18.10;45.94;101221.59;5055220;28;20159;-39
2021/11/09 06:51:14;;;;;;;882.28;827.47;;;;;;;18.11;45.97;101230.41;5056176;28;20366;-40
2021/11/09 06:53:42;;;;;;;872.85;817.42;;;;;;;18.13;45.79;101220.50;5056308;28;20393;-40
2021/11/09 06:56:08;;;;;;;883.10;828.08;;;;;;;18.15;45.81;101216.72;5056137;28;20028;-40
2021/11/09 06:58:35;;;;;;;863.40;810.22;;;;;;;18.18;45.68;101221.78;5056164;28;20473;-40
2021/11/09 07:01:04;;;;;;;843.90;792.22;;;;;;;18.18;45.79;101219.13;5056032;28;20029;-39
2021/11/09 07:03:33;;;;;;;872.05;818.35;;;;;;;18.18;45.75;101218.31;5055850;28;20063;-40
2021/11/09 07:06:00;;;;;;;886.45;830.22;;;;;;;18.04;45.87;101198.19;5056074;28;20357;-40
2021/11/09 07:08:26;;;;;;;876.20;822.13;;;;;;;18.10;46.21;101204.81;5056139;28;20029;-40
2021/11/09 07:10:52;;;;;;;870.45;816.38;;;;;;;18.09;45.95;101219.91;5055777;28;20021;-40
2021/11/09 07:13:19;;;;;;;900.55;843.10;;;;;;;18.08;46.26;101235.97;5045041;28;20492;-40
2021/11/09 07:15:45;;;;;;;878.67;823.55;;;;;;;18.10;46.05;101260.63;5035889;28;20355;-40
2021/11/09 07:18:11;;;;;;;887.50;831.97;;;;;;;18.06;46.14;101257.38;5035661;28;20044;-40
2021/11/09 07:20:38;;;;;;;905.28;848.08;;;;;;;18.06;46.22;101249.41;5035643;28;20025;-40
2021/11/09 07:23:04;;;;;;;877.72;822.78;;;;;;;18.12;46.25;101256.88;5035665;28;20026;-40
2021/11/09 07:25:31;;;;;;;833.97;783.20;;;;;;;18.10;46.22;101240.19;5035736;28;20044;-40
2021/11/09 07:27:58;;;;;;;843.20;791.08;;;;;;;18.16;46.25;101246.84;5035718;28;20049;-39
2021/11/09 07:30:28;;;;;;;887.58;832.40;;;;;;;18.17;46.25;101224.56;5035723;28;20021;-40
2021/11/09 07:32:55;;;;;;;880.33;825.35;;;;;;;18.11;46.36;101233.06;5035168;28;20025;-40
2021/11/09 07:35:21;;;;;;;888.67;833.30;;;;;;;18.11;46.57;101236.56;5035507;28;20170;-39
2021/11/09 07:37:47;;;;;;;877.45;822.80;;;;;;;18.12;46.46;101216.13;5035595;28;20017;-40
2021/11/09 07:40:14;;;;;;;872.70;817.67;;;;;;;18.07;46.59;101236.94;5035437;28;20033;-40
2021/11/09 07:42:47;;;;;;;887.40;831.35;;;;;;;18.07;46.65;101235.16;5052544;28;20074;-40
2021/11/09 07:45:18;;;;;;;844.75;791.63;;;;;;;17.88;46.69;101213.75;5054437;28;20025;-40
2021/11/09 07:47:45;;;;;;;874.95;820.50;;;;;;;18.01;46.88;101220.56;5054471;28;20025;-40
2021/11/09 07:50:11;;;;;;;886.03;831.00;;;;;;;18.03;46.85;101196.50;5055240;28;20020;-40
2021/11/09 07:52:37;;;;;;;851.25;798.90;;;;;;;18.06;46.67;101214.84;5054843;28;20020;-40
2021/11/09 07:55:06;;;;;;;832.05;780.53;;;;;;;18.09;46.63;101213.75;5055202;28;20362;-40
2021/11/09 07:57:48;;;;;;;848.63;796.58;;;;;;;18.12;46.48;101213.47;5069755;28;20028;-40
2021/11/09 08:00:26;;;;;;;826.25;775.60;;;;;;;18.13;46.67;101231.97;5055040;28;20037;-40
2021/11/09 08:05:30;;;;;;;874.80;820.40;;;;;;;18.07;46.82;101245.78;5055011;28;20031;-40
2021/11/09 08:08:03;;;;;;;847.53;795.58;;;;;;;18.07;46.95;101239.59;5054973;28;20029;-39
2021/11/09 08:10:30;;;;;;;861.15;808.30;;;;;;;18.04;47.05;101235.41;5054915;28;20025;-40
2021/11/09 08:12:57;;;;;;;872.65;819.15;;;;;;;18.04;47.22;101230.09;5054446;28;20021;-39
2021/11/09 08:15:23;;;;;;;862.50;808.95;;;;;;;18.01;47.22;101241.81;5054935;28;20029;-40
2021/11/09 08:17:49;;;;;;;851.08;797.42;;;;;;;18.00;47.34;101239.28;5054610;28;20032;-40
2021/11/09 08:20:15;;;;;;;853.95;801.42;;;;;;;18.00;47.35;101245.44;5054718;28;20032;-40
2021/11/09 08:22:41;;;;;;;881.15;826.83;;;;;;;18.03;47.12;101247.84;5054358;28;20135;-40
2021/11/09 08:25:07;;;;;;;841.90;791.25;;;;;;;18.06;47.13;101246.75;5054688;28;20107;-40
2021/11/09 08:27:34;;;;;;;842.53;790.50;;;;;;;18.10;46.96;101236.69;5054624;28;20450;-40
2021/11/09 08:30:00;;;;;;;863.72;810.88;;;;;;;18.08;47.32;101236.81;5053777;28;20064;-40
2021/11/09 08:32:26;;;;;;;876.15;821.35;;;;;;;18.07;47.22;101264.38;5054459;28;20074;-40
2021/11/09 08:34:53;;;;;;;810.30;760.70;;;;;;;18.04;47.21;101285.91;5054242;28;20035;-40
2021/11/09 08:37:20;;;;;;;888.38;831.50;;;;;;;18.01;47.51;101268.41;5054517;28;20040;-40
2021/11/09 08:39:47;;;;;;;889.78;833.47;;;;;;;18.01;47.50;101287.00;5054500;28;20447;-40
2021/11/09 08:43:18;;;;;;;891.75;835.63;;;;;;;18.00;47.65;101306.56;5054392;28;20055;-40
2021/11/09 08:45:29;;;;;;;883.72;828.40;;;;;;;17.99;47.73;101317.31;5041048;28;20069;-40
2021/11/09 08:48:04;;;;;;;854.92;801.70;;;;;;;17.96;47.96;101314.91;5054342;28;20032;-40
2021/11/09 08:50:30;;;;;;;865.20;811.90;;;;;;;18.00;47.74;101314.53;5054446;28;20033;-40
2021/11/09 08:52:58;;;;;;;827.40;776.70;;;;;;;18.01;47.46;101308.25;5070735;28;20039;-40
2021/11/09 09:06:04;;;;;;;860.33;807.65;;;;;;;17.97;47.95;101330.72;5074311;28;20086;-40
2021/11/09 09:08:33;;;;;;;872.22;818.25;;;;;;;17.92;48.20;101335.56;5075415;28;20028;-40
2021/11/09 09:11:00;;;;;;;873.25;818.30;;;;;;;17.93;47.97;101328.47;5078113;28;20035;-40
2021/11/09 09:13:26;;;;;;;898.90;842.38;;;;;;;17.94;48.12;101314.19;5077898;28;20052;-40
2021/11/09 09:15:53;;;;;;;883.17;828.25;;;;;;;17.94;48.14;101333.63;5078268;28;20028;-40
2021/11/09 09:18:19;;;;;;;892.10;836.67;;;;;;;17.94;48.03;101332.78;5077919;28;20398;-40
2021/11/09 09:23:35;;;;;;;821.85;771.33;;;;;;;18.01;47.68;101365.88;5066673;28;20052;-40
2021/11/09 09:52:51;;;;;;;774.55;729.28;;;;;;;17.98;48.11;101406.00;5057410;28;20465;-40
2021/11/09 09:57:48;;;;;;;861.15;808.58;;;;;;;17.98;48.36;101384.75;5057394;28;20362;-40
2021/11/09 10:00:15;;;;;;;892.38;837.17;;;;;;;17.94;48.47;101380.63;5057222;28;20024;-40
2021/11/09 10:02:55;;;;;;;894.15;838.53;;;;;;;17.91;48.72;101391.50;5056176;28;20100;-40
2021/11/09 10:05:22;;;;;;;907.90;850.55;;;;;;;17.91;48.74;101386.16;5056007;28;20031;-40
2021/11/09 10:07:52;;;;;;;872.33;818.55;;;;;;;17.88;48.80;101383.78;5057199;28;20421;-40
2021/11/09 10:10:21;;;;;;;874.30;820.22;;;;;;;17.82;48.89;101371.81;5056180;28;20048;-40
2021/11/09 10:13:01;;;;;;;882.72;827.42;;;;;;;17.86;49.07;101378.59;5056086;28;20413;-40
2021/11/09 10:15:29;;;;;;;851.45;799.30;;;;;;;17.85;48.91;101375.09;5056849;28;20364;-40
2021/11/09 10:17:59;;;;;;;895.45;839.63;;;;;;;17.85;48.85;101383.06;5056820;28;20040;-40
2021/11/09 10:20:30;;;;;;;825.80;774.38;;;;;;;17.91;48.64;101378.19;5056266;28;20074;-40
2021/11/09 10:23:00;;;;;;;834.17;783.97;;;;;;;17.90;48.55;101385.34;5057081;28;20057;-40
2021/11/09 10:25:27;;;;;;;833.78;783.13;;;;;;;17.90;48.54;101381.84;5056629;28;20064;-40
2021/11/09 10:27:57;;;;;;;846.17;794.78;;;;;;;17.89;48.83;101372.16;5056786;28;20032;-40
2021/11/09 10:30:27;;;;;;;868.63;815.67;;;;;;;17.87;48.78;101374.94;5056791;28;20035;-40
2021/11/09 10:32:54;;;;;;;848.30;796.10;;;;;;;17.86;49.00;101379.44;5056516;28;20032;-40
2021/11/09 10:35:21;;;;;;;888.05;833.22;;;;;;;17.89;48.85;101382.78;5056459;28;20032;-40
2021/11/09 10:37:54;;;;;;;877.75;823.45;;;;;;;17.84;49.07;101396.44;5055622;28;20104;-40
2021/11/09 10:40:23;;;;;;;895.08;840.13;;;;;;;17.85;49.17;101376.84;5055680;28;20547;-40
2021/11/09 10:42:51;;;;;;;866.17;813.10;;;;;;;17.85;49.16;101377.75;5055547;28;20037;-40
2021/11/09 10:45:19;;;;;;;904.00;847.38;;;;;;;17.86;49.07;101384.75;5056250;28;20029;-40
2021/11/09 10:47:48;;;;;;;880.60;825.83;;;;;;;17.85;49.14;101377.75;5055595;28;20025;-40
2021/11/09 10:50:24;;;;;;;842.13;791.53;;;;;;;17.86;48.93;101390.06;5055471;28;20024;-40
2021/11/09 10:53:14;;;;;;;870.20;816.97;;;;;;;17.89;48.94;101378.34;5056312;28;20170;-40
2021/11/09 11:06:28;;;;;;;868.95;814.88;;;;;;;17.83;49.26;101390.25;5055996;28;20478;-40
2021/11/09 11:09:02;;;;;;;860.05;807.47;;;;;;;17.80;49.38;101379.03;5056227;28;20458;-40
2021/11/09 11:11:32;;;;;;;854.72;802.90;;;;;;;17.83;49.35;101389.41;5056018;28;20091;-40
2021/11/09 11:14:15;;;;;;;886.53;831.63;;;;;;;17.82;49.33;101383.28;5055959;28;20020;-40
2021/11/09 11:16:46;;;;;;;873.20;819.72;;;;;;;17.81;49.24;101389.53;5055477;28;20021;-40
2021/11/09 11:19:19;;;;;;;862.75;810.70;;;;;;;17.87;49.22;101388.22;5055690;28;20359;-40
2021/11/09 11:21:46;;;;;;;819.67;770.65;;;;;;;17.79;48.98;101378.19;5055947;28;20024;-40
2021/11/09 11:24:14;;;;;;;843.38;792.58;;;;;;;17.90;49.05;101384.50;5054900;28;20105;-40
2021/11/09 11:26:44;;;;;;;849.47;797.97;;;;;;;17.88;49.32;101386.44;5055436;28;20440;-40
2021/11/09 11:29:18;;;;;;;841.65;790.35;;;;;;;17.82;49.37;101383.28;5055754;28;20029;-40
2021/11/09 11:31:44;;;;;;;891.22;836.67;;;;;;;17.85;49.49;101383.06;5054874;28;20021;-40
2021/11/09 11:34:10;;;;;;;868.25;814.72;;;;;;;17.83;49.64;101386.75;5055481;28;20021;-40
2021/11/09 11:36:37;;;;;;;865.47;811.53;;;;;;;17.82;49.22;101382.44;5055551;28;20025;-40
2021/11/09 11:39:06;;;;;;;911.00;853.50;;;;;;;17.79;49.65;101378.19;5055727;28;20024;-40
2021/11/09 11:41:34;;;;;;;867.67;814.33;;;;;;;17.78;49.63;101387.16;5055229;28;20580;-40
2021/11/09 11:44:02;;;;;;;875.72;822.53;;;;;;;17.80;49.46;101389.66;5055331;28;20055;-40
2021/11/09 11:46:32;;;;;;;874.75;820.53;;;;;;;17.80;49.41;101405.59;5043747;28;20029;-40
2021/11/09 11:49:08;;;;;;;862.30;809.47;;;;;;;17.81;49.50;101394.84;5035562;28;20076;-40
2021/11/09 11:51:38;;;;;;;837.17;786.35;;;;;;;17.84;49.42;101407.91;5035295;28;20493;-40
2021/11/09 11:54:07;;;;;;;813.17;764.42;;;;;;;17.85;49.30;101414.94;5050861;28;20037;-40
2021/11/09 11:56:39;;;;;;;880.13;826.50;;;;;;;17.88;49.62;101413.00;5050479;28;20105;-40
2021/11/09 11:59:06;;;;;;;;;;;;;;;18.01;49.32;101414.56;5051334;28;20520;-40
2021/11/09 12:01:39;;;;;;;786.20;739.00;;;;;;;17.86;49.68;101427.25;5035078;28;19919;-40
2021/11/09 12:04:08;;;;;;;850.28;798.90;;;;;;;17.79;49.70;101428.66;5035068;28;20535;-40
2021/11/09 12:06:49;;;;;;;872.92;819.45;;;;;;;17.81;49.74;101444.50;5034786;28;20029;-40
2021/11/09 12:09:32;;;;;;;872.65;818.72;;;;;;;17.81;49.91;101453.31;5049023;28;20406;-40
2021/11/09 12:12:21;;;;;;;864.13;810.30;;;;;;;17.85;49.75;101460.13;5035005;28;20040;-40
2021/11/09 12:14:59;;;;;;;861.85;809.17;;;;;;;17.76;49.88;101467.91;5029914;28;20041;-40
2021/11/09 12:17:40;;;;;;;843.67;792.38;;;;;;;17.79;49.89;101470.34;5049274;28;20029;-40
2021/11/09 12:20:16;;;;;;;868.47;816.03;;;;;;;17.81;49.61;101469.25;5049824;28;20351;-40
2021/11/09 12:22:48;;;;;;;816.55;766.72;;;;;;;17.83;49.71;101488.56;5037463;28;20025;-40
2021/11/09 12:25:36;;;;;;;847.17;795.40;;;;;;;17.90;49.79;101480.16;5054831;28;20020;-39
2021/11/09 12:28:04;;;;;;;871.05;818.15;;;;;;;17.84;49.70;101487.59;5054499;28;20469;-40
2021/11/09 12:30:36;;;;;;;899.65;844.33;;;;;;;17.81;50.06;101487.84;5054664;28;20033;-40
2021/11/09 12:33:03;;;;;;;867.80;814.28;;;;;;;17.79;50.03;101488.94;5054597;28;20086;-41
2021/11/09 12:35:29;;;;;;;899.85;843.90;;;;;;;17.76;50.03;101492.66;5054642;28;20528;-40
2021/11/09 12:38:01;;;;;;;893.53;837.65;;;;;;;17.76;50.29;101492.66;5054374;28;20455;-39
2021/11/09 12:40:34;;;;;;;888.80;833.67;;;;;;;17.79;50.09;101500.41;5054585;28;20455;-39
2021/11/09 12:43:25;;;;;;;889.60;834.65;;;;;;;17.77;50.33;101517.44;5054000;28;20037;-40
2021/11/09 12:46:11;;;;;;;872.22;819.35;;;;;;;17.77;50.22;101497.03;5054757;28;20029;-40
2021/11/09 12:48:52;;;;;;;869.03;815.35;;;;;;;17.80;50.09;101499.44;5054115;28;20051;-40
2021/11/09 12:51:26;;;;;;;848.63;797.15;;;;;;;17.80;50.03;101496.78;5054420;28;20094;-40
2021/11/09 12:53:53;;;;;;;823.67;773.97;;;;;;;17.81;50.03;101484.34;5054471;28;20024;-40
2021/11/09 12:56:34;;;;;;;871.67;817.65;;;;;;;17.82;50.40;101494.03;5054415;28;20096;-40
2021/11/09 12:59:07;;;;;;;844.92;793.42;;;;;;;17.81;50.15;101490.50;5054153;28;20039;-40
2021/11/09 13:04:29;;;;;;;856.20;803.47;;;;;;;17.80;50.31;101503.91;5054126;28;20028;-40
2021/11/09 13:07:14;;;;;;;869.47;815.35;;;;;;;17.76;50.52;101503.28;5054297;28;20098;-40
2021/11/09 13:09:46;;;;;;;852.67;800.40;;;;;;;17.76;50.58;101491.84;5054347;28;20033;-40
2021/11/09 13:12:13;;;;;;;;;;;;;;;17.92;50.10;101500.31;5054654;28;20028;-40
2021/11/09 13:14:44;;;;;;;800.85;752.95;;;;;;;17.80;50.27;101501.25;5054147;28;20403;-40
2021/11/09 13:17:24;;;;;;;854.53;802.45;;;;;;;17.77;50.54;101491.72;5054161;28;20033;-40